Terminal Aerodrome Forecast
Issued by NWS

Home | Current Version | Previous Version | Text Only | Print | Product List | Glossary On
Versions: 1 2 3 4 5 6 7 8 9 10 11 12 13 14 15 16 17 18 19 20 21 22 23 24 25 26 27 28 29 30
000
FTUS41 KBTV 201128
TAFPBG
TAF
KPBG 201128Z 2012/2112 VRB03KT 1 1/2SM -RA BR OVC025
     FM201400 14004KT 1 1/2SM -RA BR OVC015
     FM201600 17005KT 2SM -SHRA BR OVC008
     FM201800 18007KT P6SM VCSH OVC015
     FM210200 16005KT P6SM OVC020
     FM210900 17006KT P6SM BKN045 WS020/22035KT=

USA.gov is the U.S. government's official web portal to all federal, state and local government web resources and services.